Time;durP1;ratioP1;P1;durP2;ratioP2;P2;SDS_P1;SDS_P2;PMS_P1;PMS_P2;Temp;Humidity;BMP_temperature;BMP_pressure;BME280_temperature;BME280_humidity;BME280_pressure;Samples;Min_cycle;Max_cycle;Signal;HPM_P1;HPM_P2
2021/07/18 00:01:10;;;;;;;8.30;6.17;;;23.20;99.90;;;;;;5113710;28;21211;-61
2021/07/18 00:03:37;;;;;;;7.10;5.80;;;23.10;99.90;;;;;;5102107;27;20465;-61
2021/07/18 00:06:04;;;;;;;9.90;8.50;;;23.00;99.90;;;;;;5100820;27;20477;-61
2021/07/18 00:08:31;;;;;;;7.03;6.43;;;23.10;99.90;;;;;;5106251;28;20489;-61
2021/07/18 00:10:58;;;;;;;5.77;5.20;;;23.00;99.90;;;;;;5107660;28;20472;-61
2021/07/18 00:13:25;;;;;;;5.00;4.30;;;23.00;99.90;;;;;;5106090;27;20464;-61
2021/07/18 00:15:53;;;;;;;7.13;4.10;;;23.00;99.90;;;;;;5114261;27;20475;-61
2021/07/18 00:18:20;;;;;;;4.97;3.03;;;22.90;99.90;;;;;;5105138;27;20470;-61
2021/07/18 00:20:49;;;;;;;5.60;3.43;;;22.90;99.90;;;;;;5110118;28;20521;-61
2021/07/18 00:23:17;;;;;;;4.73;4.03;;;22.90;99.90;;;;;;5104534;28;20540;-61
2021/07/18 00:25:44;;;;;;;3.53;3.03;;;22.80;99.90;;;;;;5108033;27;20850;-61
2021/07/18 00:28:11;;;;;;;4.30;3.47;;;22.80;99.90;;;;;;5103793;28;20471;-61
2021/07/18 00:30:38;;;;;;;5.07;3.27;;;22.80;99.90;;;;;;5100596;28;20487;-61
2021/07/18 00:33:07;;;;;;;5.33;3.40;;;22.80;99.90;;;;;;5103771;27;20538;-61
2021/07/18 00:35:35;;;;;;;3.50;3.20;;;22.70;99.90;;;;;;5111458;27;20575;-61
2021/07/18 00:38:02;;;;;;;5.10;4.20;;;22.70;99.90;;;;;;5113530;27;20606;-61
2021/07/18 00:40:29;;;;;;;4.50;3.87;;;22.70;99.90;;;;;;5100469;28;20468;-61
2021/07/18 00:42:56;;;;;;;7.40;4.63;;;22.70;99.90;;;;;;5103243;28;20469;-61
2021/07/18 00:45:23;;;;;;;6.30;4.40;;;22.70;99.90;;;;;;5110523;28;20513;-61
2021/07/18 00:47:50;;;;;;;5.07;4.57;;;22.70;99.90;;;;;;5103086;28;20534;-61
2021/07/18 00:50:18;;;;;;;5.50;3.93;;;22.70;99.90;;;;;;5107310;27;20992;-62
2021/07/18 00:52:46;;;;;;;6.27;3.93;;;22.70;99.90;;;;;;5104616;27;20515;-61
2021/07/18 00:55:14;;;;;;;4.20;3.40;;;22.70;99.90;;;;;;5099810;28;20468;-61
2021/07/18 00:57:45;;;;;;;6.07;3.13;;;22.70;99.90;;;;;;5102307;28;20921;-61
2021/07/18 01:00:14;;;;;;;3.97;3.57;;;22.70;99.90;;;;;;5106646;28;20559;-61
2021/07/18 01:02:41;;;;;;;5.00;3.60;;;22.60;99.90;;;;;;5105979;28;20460;-61
2021/07/18 01:05:11;;;;;;;3.83;3.40;;;22.60;99.90;;;;;;5099744;28;20464;-61
2021/07/18 01:07:39;;;;;;;5.20;4.70;;;22.60;99.90;;;;;;5100079;28;20539;-62
2021/07/18 01:10:09;;;;;;;5.40;3.90;;;22.60;99.90;;;;;;5099735;28;20468;-62
2021/07/18 01:12:36;;;;;;;3.53;3.23;;;22.50;99.90;;;;;;5113629;28;20775;-62
2021/07/18 01:15:05;;;;;;;4.77;4.07;;;22.50;99.90;;;;;;5113273;27;20491;-61
2021/07/18 01:17:32;;;;;;;5.17;4.67;;;22.50;99.90;;;;;;5110384;28;21031;-62
2021/07/18 01:19:59;;;;;;;8.97;4.07;;;22.50;99.90;;;;;;5102548;27;20460;-61
2021/07/18 01:22:28;;;;;;;4.37;3.87;;;22.50;99.90;;;;;;5110055;28;20461;-61
2021/07/18 01:24:55;;;;;;;5.70;4.53;;;22.50;99.90;;;;;;5102710;28;20464;-61
2021/07/18 01:27:22;;;;;;;4.40;4.00;;;22.50;99.90;;;;;;5099755;28;20522;-61
2021/07/18 01:29:49;;;;;;;6.23;3.93;;;22.40;99.90;;;;;;5102798;27;20481;-61
2021/07/18 01:32:16;;;;;;;4.13;3.80;;;22.40;99.90;;;;;;5106155;28;20488;-61
2021/07/18 01:34:43;;;;;;;3.47;3.13;;;22.40;99.90;;;;;;5104134;28;20802;-61
2021/07/18 01:37:10;;;;;;;3.73;3.07;;;22.40;99.90;;;;;;5112633;27;20479;-61
2021/07/18 01:39:38;;;;;;;3.97;3.30;;;22.40;99.90;;;;;;5101943;28;20469;-61
2021/07/18 01:42:06;;;;;;;4.13;3.60;;;22.30;99.90;;;;;;5105696;28;20477;-61
2021/07/18 01:44:33;;;;;;;7.70;5.13;;;22.40;99.90;;;;;;5104588;28;20464;-62
2021/07/18 01:47:00;;;;;;;5.93;4.47;;;22.30;99.90;;;;;;5099242;28;20464;-61
2021/07/18 01:49:27;;;;;;;8.70;3.93;;;22.30;99.90;;;;;;5108422;27;20465;-61
2021/07/18 01:51:54;;;;;;;4.30;3.20;;;22.30;99.90;;;;;;5112520;28;20528;-61
2021/07/18 01:54:21;;;;;;;6.60;4.77;;;22.30;99.90;;;;;;5100224;28;20526;-61
2021/07/18 01:56:49;;;;;;;4.00;3.40;;;22.30;99.90;;;;;;5106173;28;20546;-61
2021/07/18 01:59:18;;;;;;;7.60;3.80;;;22.30;99.90;;;;;;5105369;28;20833;-62
2021/07/18 02:01:45;;;;;;;6.50;4.33;;;22.20;99.90;;;;;;5099719;28;20464;-61
2021/07/18 02:04:13;;;;;;;4.10;3.20;;;22.20;99.90;;;;;;5111657;28;20491;-61
2021/07/18 02:06:41;;;;;;;3.40;2.73;;;22.20;99.90;;;;;;5099362;28;20548;-61
2021/07/18 02:09:08;;;;;;;5.10;4.10;;;22.20;99.90;;;;;;5098791;28;21137;-61
2021/07/18 02:11:35;;;;;;;4.17;3.73;;;22.20;99.90;;;;;;5105264;28;20462;-61
2021/07/18 02:14:04;;;;;;;3.77;3.47;;;22.20;99.90;;;;;;5108816;27;20958;-61
2021/07/18 02:16:32;;;;;;;3.53;3.20;;;22.10;99.90;;;;;;5112866;28;20766;-61
2021/07/18 02:19:06;;;;;;;4.03;3.43;;;22.10;99.90;;;;;;5102765;28;20526;-61
2021/07/18 02:21:34;;;;;;;5.70;3.30;;;22.10;99.90;;;;;;5108532;28;20472;-61
2021/07/18 02:24:01;;;;;;;4.17;3.87;;;22.00;99.90;;;;;;5103224;28;20472;-61
2021/07/18 02:26:29;;;;;;;6.63;3.60;;;22.00;99.90;;;;;;5098973;28;20490;-61
2021/07/18 02:28:56;;;;;;;5.83;3.80;;;22.00;99.90;;;;;;5100370;28;20549;-61
2021/07/18 02:31:25;;;;;;;5.00;3.80;;;22.00;99.90;;;;;;5110450;28;20970;-61
2021/07/18 02:33:51;;;;;;;5.63;4.30;;;22.00;99.90;;;;;;5100688;28;20473;-61
2021/07/18 02:36:19;;;;;;;4.07;3.73;;;21.90;99.90;;;;;;5107077;28;20468;-62
2021/07/18 02:38:46;;;;;;;4.60;4.03;;;21.90;99.90;;;;;;5108539;28;20468;-61
2021/07/18 02:41:13;;;;;;;5.13;4.63;;;21.90;99.90;;;;;;5102535;27;20522;-61
2021/07/18 02:43:40;;;;;;;4.83;4.33;;;21.90;99.90;;;;;;5103595;27;20465;-61
2021/07/18 02:46:07;;;;;;;7.17;4.20;;;21.90;99.90;;;;;;5109296;28;20480;-61
2021/07/18 02:48:36;;;;;;;5.50;3.90;;;21.80;99.90;;;;;;5109049;28;20537;-61
2021/07/18 02:51:04;;;;;;;4.03;3.63;;;21.80;99.90;;;;;;5102588;28;20460;-61
2021/07/18 02:53:31;;;;;;;5.10;3.77;;;21.80;99.90;;;;;;5115700;27;21030;-61
2021/07/18 02:55:58;;;;;;;4.07;3.67;;;21.70;99.90;;;;;;5102708;28;20468;-61
2021/07/18 02:58:25;;;;;;;4.00;3.70;;;21.70;99.90;;;;;;5102113;28;20473;-61
2021/07/18 03:00:52;;;;;;;7.20;3.83;;;21.70;99.90;;;;;;5102633;28;20544;-61
2021/07/18 03:03:19;;;;;;;3.67;3.20;;;21.70;99.90;;;;;;5102211;28;21004;-61
2021/07/18 03:05:47;;;;;;;5.17;4.20;;;21.60;99.90;;;;;;5102717;28;20472;-61
2021/07/18 03:08:14;;;;;;;4.23;3.70;;;21.70;99.90;;;;;;5115180;27;20479;-61
2021/07/18 03:10:41;;;;;;;4.47;4.07;;;21.60;99.90;;;;;;5102847;28;20476;-61
2021/07/18 03:13:08;;;;;;;4.37;3.90;;;21.60;99.90;;;;;;5110423;27;20460;-61
2021/07/18 03:15:35;;;;;;;5.17;4.50;;;21.60;99.90;;;;;;5116133;27;20498;-61
2021/07/18 03:18:06;;;;;;;5.53;4.27;;;21.50;99.90;;;;;;5112406;27;20529;-60
2021/07/18 03:20:33;;;;;;;5.60;4.40;;;21.50;99.90;;;;;;5100143;28;20469;-61
2021/07/18 03:23:02;;;;;;;4.30;3.80;;;21.50;99.90;;;;;;5108708;28;20464;-61
2021/07/18 03:25:29;;;;;;;5.57;4.43;;;21.50;99.90;;;;;;5104654;28;20860;-61
2021/07/18 03:27:56;;;;;;;6.57;4.67;;;21.50;99.90;;;;;;5102062;27;20473;-61
2021/07/18 03:30:23;;;;;;;6.07;4.40;;;21.50;99.90;;;;;;5105963;28;20515;-61
2021/07/18 03:32:51;;;;;;;9.40;4.90;;;21.40;99.90;;;;;;5108695;28;20468;-61
2021/07/18 03:35:18;;;;;;;5.60;4.10;;;21.40;99.90;;;;;;5104656;28;21012;-61
2021/07/18 03:37:46;;;;;;;8.93;4.37;;;21.40;99.90;;;;;;5101628;28;20541;-61
2021/07/18 03:40:16;;;;;;;3.80;3.50;;;21.40;99.90;;;;;;5104304;28;20539;-61
2021/07/18 03:42:43;;;;;;;5.07;3.93;;;21.40;99.90;;;;;;5108819;28;20473;-61
2021/07/18 03:45:12;;;;;;;4.93;3.67;;;21.40;99.90;;;;;;5105138;28;20533;-62
2021/07/18 03:47:39;;;;;;;3.70;3.10;;;21.40;99.90;;;;;;5100863;28;20543;-62
2021/07/18 03:50:07;;;;;;;4.93;3.40;;;21.40;99.90;;;;;;5104074;28;20489;-61
2021/07/18 03:52:34;;;;;;;6.20;3.50;;;21.30;99.90;;;;;;5114125;28;20476;-61
2021/07/18 03:55:01;;;;;;;5.00;3.80;;;21.30;99.90;;;;;;5104268;28;20469;-61
2021/07/18 03:57:29;;;;;;;6.73;4.13;;;21.30;99.90;;;;;;5108208;28;20465;-61
2021/07/18 03:59:56;;;;;;;5.50;4.53;;;21.30;99.90;;;;;;5106172;28;20533;-61
2021/07/18 04:02:23;;;;;;;7.60;3.43;;;21.30;99.90;;;;;;5100890;28;20518;-61
2021/07/18 04:04:50;;;;;;;8.53;5.10;;;21.30;99.90;;;;;;5102849;27;20473;-61
2021/07/18 04:07:17;;;;;;;5.90;5.07;;;21.30;99.90;;;;;;5107622;28;20469;-61
2021/07/18 04:09:44;;;;;;;5.30;4.20;;;21.30;99.90;;;;;;5106222;28;20522;-61
2021/07/18 04:12:11;;;;;;;4.37;3.97;;;21.30;99.90;;;;;;5100437;28;20497;-61
2021/07/18 04:14:39;;;;;;;4.77;4.27;;;21.40;99.90;;;;;;5114700;27;21027;-61
2021/07/18 04:17:06;;;;;;;4.90;4.10;;;21.40;99.90;;;;;;5113858;28;20533;-62
2021/07/18 04:19:33;;;;;;;3.73;3.27;;;21.40;99.90;;;;;;5104809;27;20534;-61
2021/07/18 04:22:00;;;;;;;5.67;5.17;;;21.40;99.90;;;;;;5106320;28;20481;-61
2021/07/18 04:24:27;;;;;;;8.60;3.90;;;21.40;99.90;;;;;;5106279;28;20460;-62
2021/07/18 04:26:55;;;;;;;4.70;3.97;;;21.40;99.90;;;;;;5101466;27;20465;-61
2021/07/18 04:29:22;;;;;;;4.40;3.80;;;21.40;99.90;;;;;;5112915;27;20504;-61
2021/07/18 04:31:50;;;;;;;4.17;3.77;;;21.40;99.90;;;;;;5112593;27;20861;-62
2021/07/18 04:34:18;;;;;;;5.90;5.20;;;21.40;99.90;;;;;;5113595;27;20493;-62
2021/07/18 04:36:45;;;;;;;4.10;3.70;;;21.50;99.90;;;;;;5114564;27;20517;-61
2021/07/18 04:39:12;;;;;;;4.67;4.17;;;21.50;99.90;;;;;;5113839;27;20504;-61
2021/07/18 04:41:39;;;;;;;3.57;3.23;;;21.50;99.90;;;;;;5112904;27;20529;-62
2021/07/18 04:44:06;;;;;;;12.33;3.50;;;21.50;99.90;;;;;;5112361;27;20958;-62
2021/07/18 04:46:33;;;;;;;4.10;3.70;;;21.50;99.90;;;;;;5112354;27;20565;-62
2021/07/18 04:49:01;;;;;;;3.93;2.97;;;21.50;99.90;;;;;;5111838;27;20840;-62
2021/07/18 04:51:28;;;;;;;4.23;2.80;;;21.50;99.90;;;;;;5111826;27;20472;-62
2021/07/18 04:53:55;;;;;;;5.00;3.67;;;21.50;99.90;;;;;;5112202;27;21049;-62
2021/07/18 04:56:22;;;;;;;7.63;4.27;;;21.60;99.90;;;;;;5113610;27;20465;-62
2021/07/18 04:58:50;;;;;;;4.30;3.33;;;21.60;99.90;;;;;;5113349;27;20618;-61
2021/07/18 05:01:17;;;;;;;4.07;3.67;;;21.60;99.90;;;;;;5113516;27;20476;-62
2021/07/18 05:03:43;;;;;;;2.73;2.50;;;21.70;99.90;;;;;;5114135;27;20473;-62
2021/07/18 05:06:12;;;;;;;4.23;3.60;;;21.70;99.90;;;;;;5113493;27;20505;-61
2021/07/18 05:08:39;;;;;;;3.50;3.03;;;21.70;99.90;;;;;;5113961;27;20545;-62
2021/07/18 05:11:07;;;;;;;4.57;4.03;;;21.70;99.90;;;;;;5113828;27;20533;-62
2021/07/18 05:13:34;;;;;;;6.43;4.27;;;21.80;99.90;;;;;;5113437;27;20946;-61
2021/07/18 05:16:00;;;;;;;4.53;3.40;;;21.80;99.90;;;;;;5114016;27;20468;-62
2021/07/18 05:18:27;;;;;;;3.83;3.27;;;21.80;99.90;;;;;;5113051;27;20476;-61
2021/07/18 05:20:54;;;;;;;3.90;3.60;;;21.90;99.90;;;;;;5113810;27;20464;-61
2021/07/18 05:23:23;;;;;;;3.10;2.90;;;21.90;99.90;;;;;;5113144;27;20800;-62
2021/07/18 05:25:50;;;;;;;4.27;2.97;;;21.90;99.90;;;;;;5113613;27;20468;-61
2021/07/18 05:28:16;;;;;;;3.73;2.70;;;21.90;99.90;;;;;;5113160;27;20855;-61
2021/07/18 05:30:44;;;;;;;3.03;2.73;;;22.00;99.90;;;;;;5113683;27;20456;-62
2021/07/18 05:33:10;;;;;;;2.87;2.67;;;22.00;99.90;;;;;;5113301;27;20456;-61
2021/07/18 05:35:38;;;;;;;4.87;4.03;;;22.10;99.90;;;;;;5113268;27;21303;-61
2021/07/18 05:38:05;;;;;;;3.70;3.40;;;22.10;99.90;;;;;;5113257;27;20472;-62
2021/07/18 05:40:33;;;;;;;3.87;2.80;;;22.20;99.90;;;;;;5112825;27;20464;-62
2021/07/18 05:43:01;;;;;;;3.07;2.87;;;22.20;99.90;;;;;;5113466;27;20464;-62
2021/07/18 05:45:28;;;;;;;2.87;2.57;;;22.20;99.90;;;;;;5112792;27;20464;-61
2021/07/18 05:47:54;;;;;;;6.37;2.90;;;22.20;99.90;;;;;;5113286;27;20828;-61
2021/07/18 05:50:21;;;;;;;6.03;3.60;;;22.30;99.90;;;;;;5112907;27;20464;-61
2021/07/18 05:52:48;;;;;;;6.57;3.20;;;22.40;99.90;;;;;;5113226;27;20832;-62
2021/07/18 05:55:16;;;;;;;3.50;3.20;;;22.40;99.90;;;;;;5112728;27;20472;-62
2021/07/18 05:57:44;;;;;;;6.50;3.43;;;22.50;99.90;;;;;;5113116;27;20476;-61
2021/07/18 06:00:13;;;;;;;5.50;3.30;;;22.50;99.90;;;;;;5113165;27;20534;-61
2021/07/18 06:02:41;;;;;;;3.00;2.53;;;22.60;99.90;;;;;;5113187;27;21105;-61
2021/07/18 06:05:09;;;;;;;4.43;2.80;;;22.60;99.90;;;;;;5113093;27;20521;-61
2021/07/18 06:07:36;;;;;;;5.83;3.00;;;22.60;99.90;;;;;;5112410;27;20844;-61
2021/07/18 06:10:06;;;;;;;3.00;2.53;;;22.70;99.90;;;;;;5114706;27;20543;-61
2021/07/18 06:12:33;;;;;;;3.00;2.70;;;22.70;99.90;;;;;;5116899;27;20995;-61
2021/07/18 06:15:01;;;;;;;2.50;2.23;;;22.80;99.90;;;;;;5117256;27;20489;-61
2021/07/18 06:17:28;;;;;;;3.57;3.27;;;22.90;99.90;;;;;;5116610;27;20981;-62
2021/07/18 06:19:55;;;;;;;5.63;2.50;;;23.00;99.90;;;;;;5117199;27;20486;-62
2021/07/18 06:22:22;;;;;;;2.70;2.37;;;23.10;99.90;;;;;;5116623;27;20468;-61
2021/07/18 06:24:49;;;;;;;2.83;2.40;;;23.20;99.90;;;;;;5117111;27;20934;-62
2021/07/18 06:27:16;;;;;;;2.50;2.23;;;23.30;99.90;;;;;;5117021;27;20464;-62
2021/07/18 06:29:43;;;;;;;4.63;2.67;;;23.40;99.90;;;;;;5116732;27;20922;-61
2021/07/18 06:32:11;;;;;;;3.97;2.43;;;23.50;99.90;;;;;;5117033;27;20468;-61
2021/07/18 06:34:38;;;;;;;2.33;2.10;;;23.60;99.90;;;;;;5116531;27;20468;-62
2021/07/18 06:37:05;;;;;;;4.23;2.67;;;23.70;99.90;;;;;;5116760;27;20464;-61
2021/07/18 06:39:32;;;;;;;4.23;2.47;;;23.90;99.90;;;;;;5116229;27;20472;-61
2021/07/18 06:41:59;;;;;;;3.67;2.20;;;23.90;99.90;;;;;;5116788;27;20461;-61
2021/07/18 06:44:26;;;;;;;3.33;2.00;;;24.00;99.90;;;;;;5116218;27;20464;-61
2021/07/18 06:46:53;;;;;;;2.33;2.13;;;24.20;99.90;;;;;;5116693;27;20456;-61
2021/07/18 06:49:21;;;;;;;2.77;2.40;;;24.30;99.90;;;;;;5116283;27;20795;-61
2021/07/18 06:51:48;;;;;;;3.50;2.10;;;24.40;99.90;;;;;;5116721;27;20823;-61
2021/07/18 06:54:15;;;;;;;2.93;2.33;;;24.60;99.90;;;;;;5116341;27;20832;-61
2021/07/18 06:56:42;;;;;;;3.50;2.40;;;24.70;99.90;;;;;;5116056;27;20464;-61
2021/07/18 06:59:10;;;;;;;2.83;2.63;;;24.90;99.90;;;;;;5116227;27;20468;-61
2021/07/18 07:01:36;;;;;;;3.30;2.67;;;25.00;99.90;;;;;;5115994;27;20460;-62
2021/07/18 07:04:04;;;;;;;5.00;2.50;;;25.20;99.90;;;;;;5116437;27;20472;-61
2021/07/18 07:06:32;;;;;;;2.57;2.37;;;25.30;99.90;;;;;;5115751;27;20468;-61
2021/07/18 07:08:59;;;;;;;3.33;2.40;;;25.40;99.90;;;;;;5116217;27;20498;-61
2021/07/18 07:11:26;;;;;;;2.10;2.00;;;25.50;99.30;;;;;;5115710;27;20841;-61
2021/07/18 07:13:53;;;;;;;2.03;1.80;;;25.60;99.20;;;;;;5116271;27;20460;-62
2021/07/18 07:16:20;;;;;;;2.00;1.90;;;25.70;99.10;;;;;;5116146;27;20518;-61
2021/07/18 07:18:48;;;;;;;2.60;1.93;;;25.90;98.90;;;;;;5115634;27;20521;-62
2021/07/18 07:21:15;;;;;;;2.37;2.13;;;26.00;98.70;;;;;;5115210;27;21005;-61
2021/07/18 07:23:43;;;;;;;4.07;3.03;;;26.00;98.40;;;;;;5115549;27;20536;-61
2021/07/18 07:26:10;;;;;;;3.37;2.30;;;26.10;98.20;;;;;;5115848;27;20472;-61
2021/07/18 07:28:37;;;;;;;3.17;2.67;;;26.20;98.10;;;;;;5115466;27;20468;-61
2021/07/18 07:31:05;;;;;;;2.90;2.27;;;26.30;97.50;;;;;;5115802;27;20521;-61
2021/07/18 07:33:33;;;;;;;3.20;2.30;;;26.40;97.50;;;;;;5115286;27;20530;-62
2021/07/18 07:36:01;;;;;;;4.93;2.67;;;26.50;97.40;;;;;;5115685;27;20476;-61
2021/07/18 07:38:28;;;;;;;2.67;2.47;;;26.60;96.90;;;;;;5115063;27;20551;-61
2021/07/18 07:40:56;;;;;;;5.60;2.23;;;26.80;96.50;;;;;;5115444;27;20958;-61
2021/07/18 07:43:24;;;;;;;3.93;2.73;;;26.90;96.10;;;;;;5115548;27;20499;-61
2021/07/18 07:45:51;;;;;;;3.40;2.43;;;27.00;95.60;;;;;;5115227;27;20547;-61
2021/07/18 07:48:18;;;;;;;5.20;2.70;;;27.10;95.60;;;;;;5115413;27;20460;-61
2021/07/18 07:50:45;;;;;;;2.90;2.03;;;27.20;95.50;;;;;;5115091;27;20473;-61
2021/07/18 07:53:12;;;;;;;2.43;2.23;;;27.30;94.40;;;;;;5115101;27;20546;-61
2021/07/18 07:55:39;;;;;;;2.83;2.63;;;27.40;94.20;;;;;;5114945;27;20958;-61
2021/07/18 07:58:07;;;;;;;4.00;2.20;;;27.50;94.10;;;;;;5115231;27;21027;-61
2021/07/18 08:00:34;;;;;;;3.43;2.53;;;27.60;93.90;;;;;;5114677;27;20860;-61
2021/07/18 08:03:01;;;;;;;5.40;2.47;;;27.60;93.90;;;;;;5115167;27;20472;-61
2021/07/18 08:05:28;;;;;;;2.83;2.57;;;27.70;93.60;;;;;;5114766;27;20460;-59
2021/07/18 08:07:55;;;;;;;2.60;2.20;;;27.70;93.60;;;;;;5114950;27;20970;-61
2021/07/18 08:10:24;;;;;;;2.90;2.70;;;27.80;93.40;;;;;;5115037;27;20468;-61
2021/07/18 08:12:51;;;;;;;3.40;2.30;;;27.80;93.50;;;;;;5114953;27;20460;-61
2021/07/18 08:15:21;;;;;;;3.40;2.47;;;27.80;93.40;;;;;;5115000;27;20516;-61
2021/07/18 08:17:48;;;;;;;3.30;2.30;;;27.90;93.50;;;;;;5114340;27;20462;-61
2021/07/18 08:20:18;;;;;;;4.03;2.30;;;28.00;93.30;;;;;;5114877;27;20461;-61
2021/07/18 08:22:46;;;;;;;4.07;2.80;;;28.00;93.10;;;;;;5114343;27;20843;-61
2021/07/18 08:25:15;;;;;;;5.10;3.37;;;28.10;93.00;;;;;;5114426;27;20543;-62
2021/07/18 08:27:43;;;;;;;3.67;2.80;;;28.20;93.10;;;;;;5114312;27;20850;-61
2021/07/18 08:30:11;;;;;;;2.97;2.47;;;28.30;92.40;;;;;;5114730;27;20464;-61
2021/07/18 08:32:40;;;;;;;2.70;2.33;;;28.40;92.20;;;;;;5113638;27;20465;-62
2021/07/18 08:35:09;;;;;;;6.00;3.00;;;28.40;92.30;;;;;;5114073;27;20513;-62
2021/07/18 08:37:37;;;;;;;2.70;2.50;;;28.50;92.00;;;;;;5113892;27;20601;-62
2021/07/18 08:40:06;;;;;;;2.27;2.03;;;28.50;91.70;;;;;;5114469;27;20540;-61
2021/07/18 08:42:34;;;;;;;3.50;2.60;;;28.50;91.50;;;;;;5114088;27;20964;-62
2021/07/18 08:45:01;;;;;;;2.30;2.10;;;28.50;91.40;;;;;;5114249;27;20529;-62
2021/07/18 08:47:29;;;;;;;2.40;2.20;;;28.50;91.30;;;;;;5114240;27;20809;-62
2021/07/18 08:49:57;;;;;;;2.30;2.13;;;28.60;91.00;;;;;;5114249;27;20986;-62
2021/07/18 08:52:25;;;;;;;3.07;2.77;;;28.50;90.90;;;;;;5114251;27;20476;-62
2021/07/18 08:54:53;;;;;;;2.60;2.40;;;28.50;90.90;;;;;;5113548;27;20464;-61
2021/07/18 08:57:21;;;;;;;4.33;2.63;;;28.40;90.80;;;;;;5114157;27;20464;-61
2021/07/18 08:59:48;;;;;;;4.83;2.90;;;28.30;91.10;;;;;;5113575;27;20465;-61
2021/07/18 09:02:16;;;;;;;3.43;3.13;;;28.30;91.10;;;;;;5114019;27;21019;-62
2021/07/18 09:04:43;;;;;;;4.53;2.43;;;28.10;91.30;;;;;;5113828;27;20465;-62
2021/07/18 09:07:14;;;;;;;2.17;1.90;;;28.10;91.70;;;;;;5114005;27;20472;-61
2021/07/18 09:09:41;;;;;;;5.30;2.73;;;28.00;91.70;;;;;;5113392;27;20543;-61
2021/07/18 09:12:10;;;;;;;3.10;2.90;;;28.10;91.70;;;;;;5114167;27;20464;-61
2021/07/18 09:14:38;;;;;;;3.13;2.93;;;28.00;91.90;;;;;;5113429;27;20468;-61
2021/07/18 09:17:09;;;;;;;2.70;2.30;;;28.10;91.50;;;;;;5113809;27;20472;-61
2021/07/18 09:19:38;;;;;;;5.03;2.83;;;28.00;91.40;;;;;;5113454;27;20995;-61
2021/07/18 09:22:15;;;;;;;3.77;2.60;;;28.00;91.70;;;;;;5113649;27;20460;-61
2021/07/18 09:24:44;;;;;;;5.47;2.60;;;28.00;91.70;;;;;;5113483;27;20488;-61
2021/07/18 09:27:14;;;;;;;2.13;2.00;;;28.00;91.60;;;;;;5113630;27;20506;-61
2021/07/18 09:29:43;;;;;;;4.47;3.03;;;27.90;91.80;;;;;;5113218;27;20829;-61
2021/07/18 09:32:12;;;;;;;3.10;2.67;;;27.90;91.70;;;;;;5113625;27;20954;-62
2021/07/18 09:34:41;;;;;;;2.40;2.20;;;27.80;91.80;;;;;;5113100;27;20460;-61
2021/07/18 09:37:19;;;;;;;3.33;2.50;;;27.80;91.90;;;;;;5113526;27;20518;-61
2021/07/18 09:39:52;;;;;;;2.30;1.93;;;27.80;91.70;;;;;;5113145;27;20460;-61
2021/07/18 09:42:44;;;;;;;4.30;3.20;;;27.80;91.70;;;;;;5113303;27;20529;-62
2021/07/18 09:45:17;;;;;;;2.80;2.60;;;27.80;91.80;;;;;;5113364;27;20456;-61
2021/07/18 09:47:57;;;;;;;2.97;2.40;;;27.80;91.80;;;;;;5112797;27;20457;-61
2021/07/18 09:50:30;;;;;;;4.50;2.60;;;27.80;91.50;;;;;;5112891;27;20464;-61
2021/07/18 09:53:11;;;;;;;3.07;2.60;;;27.70;91.30;;;;;;5113439;27;20537;-61
2021/07/18 09:55:55;;;;;;;3.80;2.83;;;27.80;91.60;;;;;;5113015;27;20456;-62
2021/07/18 09:58:23;;;;;;;3.00;2.60;;;27.80;91.60;;;;;;5112807;27;20879;-62
2021/07/18 10:00:51;;;;;;;2.77;2.30;;;27.70;91.60;;;;;;5113170;27;20457;-61
2021/07/18 10:03:22;;;;;;;2.97;2.60;;;27.70;91.70;;;;;;5113091;27;20453;-61
2021/07/18 10:06:06;;;;;;;4.43;2.70;;;27.80;91.90;;;;;;5113066;27;20560;-61
2021/07/18 10:08:34;;;;;;;5.50;3.10;;;27.70;91.80;;;;;;5112808;27;20464;-61
2021/07/18 10:11:01;;;;;;;3.60;3.13;;;27.60;91.80;;;;;;5113071;27;20749;-61
2021/07/18 10:13:30;;;;;;;2.63;2.43;;;27.70;92.00;;;;;;5112703;27;20950;-61
2021/07/18 10:15:56;;;;;;;5.03;3.10;;;27.70;91.80;;;;;;5113466;27;20466;-62
2021/07/18 10:18:23;;;;;;;2.50;2.40;;;27.70;91.80;;;;;;5112825;27;20472;-61
2021/07/18 10:20:50;;;;;;;3.97;2.93;;;27.70;91.70;;;;;;5112891;27;20497;-61
2021/07/18 10:23:18;;;;;;;3.00;2.70;;;27.70;91.60;;;;;;5112966;27;20861;-62
2021/07/18 10:25:47;;;;;;;2.70;2.43;;;27.80;91.60;;;;;;5112401;27;20547;-61
2021/07/18 10:28:17;;;;;;;2.63;2.43;;;27.80;91.50;;;;;;5113002;27;20910;-61
2021/07/18 10:30:47;;;;;;;2.50;2.30;;;27.80;91.70;;;;;;5112574;27;20464;-62
2021/07/18 10:33:19;;;;;;;3.40;2.43;;;27.80;91.80;;;;;;5113008;27;20476;-61
2021/07/18 10:35:47;;;;;;;3.40;2.10;;;27.80;91.80;;;;;;5112305;27;20867;-62
2021/07/18 10:38:16;;;;;;;2.63;1.90;;;27.80;91.70;;;;;;5112825;27;20547;-62
2021/07/18 10:40:49;;;;;;;4.20;3.00;;;27.90;91.80;;;;;;5112392;27;21025;-59
2021/07/18 10:43:40;;;;;;;3.47;2.37;;;27.80;91.80;;;;;;5112724;27;20468;-61
2021/07/18 10:46:09;;;;;;;4.43;2.40;;;27.80;91.90;;;;;;5113211;27;20464;-61
2021/07/18 10:48:45;;;;;;;2.00;1.80;;;27.80;91.90;;;;;;5112449;27;20535;-61
2021/07/18 10:51:12;;;;;;;2.73;2.07;;;27.80;91.70;;;;;;5112525;27;20948;-60
2021/07/18 10:53:39;;;;;;;2.47;2.27;;;27.80;91.70;;;;;;5112572;27;20529;-61
2021/07/18 10:56:08;;;;;;;4.10;2.80;;;27.80;91.70;;;;;;5112701;27;20825;-61
2021/07/18 10:58:59;;;;;;;2.80;2.60;;;27.80;91.80;;;;;;5116082;27;20512;-61
2021/07/18 11:01:31;;;;;;;2.80;2.60;;;27.80;91.80;;;;;;5115828;27;20472;-61
2021/07/18 11:03:59;;;;;;;2.90;1.90;;;27.80;91.80;;;;;;5116294;27;20488;-61
2021/07/18 11:06:28;;;;;;;2.63;2.40;;;27.80;91.70;;;;;;5115951;27;20525;-61
2021/07/18 11:09:18;;;;;;;2.80;2.60;;;27.80;91.70;;;;;;5116280;27;20838;-61
2021/07/18 11:11:48;;;;;;;2.90;2.70;;;27.80;91.70;;;;;;5116145;27;20452;-61
2021/07/18 11:14:26;;;;;;;3.43;2.83;;;27.80;91.70;;;;;;5116219;27;21018;-61
2021/07/18 11:16:54;;;;;;;2.63;2.07;;;27.80;91.50;;;;;;5115903;27;21301;-60
2021/07/18 11:19:56;;;;;;;3.43;1.80;;;27.80;91.60;;;;;;5115918;27;20529;-60
2021/07/18 11:22:57;;;;;;;3.80;2.23;;;27.90;91.50;;;;;;5115765;27;20543;-60
2021/07/18 11:25:48;;;;;;;2.80;2.60;;;27.90;91.50;;;;;;5115527;27;20491;-60
2021/07/18 11:28:39;;;;;;;2.80;2.37;;;27.90;91.50;;;;;;5115507;27;20580;-61
2021/07/18 11:31:20;;;;;;;3.40;3.10;;;27.90;91.50;;;;;;5115959;27;20542;-61
2021/07/18 11:33:52;;;;;;;2.67;2.47;;;28.00;91.30;;;;;;5116394;27;20501;-61
2021/07/18 11:36:21;;;;;;;2.70;2.00;;;28.00;91.20;;;;;;5115417;27;21291;-60
2021/07/18 11:38:49;;;;;;;3.00;1.90;;;28.00;91.10;;;;;;5115807;27;20551;-63
2021/07/18 11:41:20;;;;;;;2.93;2.73;;;28.00;91.00;;;;;;5115274;27;20968;-61
2021/07/18 11:43:50;;;;;;;5.40;3.03;;;28.00;91.00;;;;;;5115589;27;20468;-61
2021/07/18 11:46:19;;;;;;;2.80;2.60;;;27.90;90.90;;;;;;5115156;27;20926;-61
2021/07/18 11:48:48;;;;;;;3.70;2.63;;;27.90;91.00;;;;;;5115507;27;20551;-61
2021/07/18 11:51:15;;;;;;;6.80;1.83;;;27.90;90.70;;;;;;5115181;27;20465;-60
2021/07/18 11:53:46;;;;;;;2.60;2.37;;;27.90;91.10;;;;;;5115236;27;20473;-61
2021/07/18 11:56:21;;;;;;;2.20;1.97;;;27.80;91.30;;;;;;5115123;27;20517;-60
2021/07/18 11:58:49;;;;;;;3.20;1.80;;;27.90;91.60;;;;;;5115538;27;20852;-60
2021/07/18 12:01:21;;;;;;;2.30;2.10;;;27.90;91.50;;;;;;5114752;27;20825;-61
2021/07/18 12:03:48;;;;;;;3.23;2.00;;;27.90;91.50;;;;;;5115280;27;20536;-61
2021/07/18 12:06:18;;;;;;;1.90;1.80;;;28.00;91.30;;;;;;5114908;27;20962;-60
2021/07/18 12:08:45;;;;;;;2.40;2.00;;;28.00;91.30;;;;;;5114940;27;20547;-61
2021/07/18 12:11:13;;;;;;;3.73;1.80;;;27.90;91.30;;;;;;5114520;27;20525;-62
2021/07/18 12:13:44;;;;;;;2.63;1.83;;;27.90;91.10;;;;;;5115208;27;20469;-61
2021/07/18 12:16:12;;;;;;;2.37;1.70;;;27.90;91.00;;;;;;5114526;27;20464;-61
2021/07/18 12:18:45;;;;;;;2.37;2.00;;;27.90;90.80;;;;;;5114988;27;20978;-62
2021/07/18 12:21:16;;;;;;;2.97;2.17;;;28.00;90.50;;;;;;5114625;27;20469;-62
2021/07/18 12:23:43;;;;;;;3.20;2.50;;;28.00;90.40;;;;;;5114870;27;20810;-61
2021/07/18 12:26:10;;;;;;;2.00;1.80;;;27.90;90.20;;;;;;5114430;27;21354;-61
2021/07/18 12:28:37;;;;;;;5.30;2.23;;;27.90;90.20;;;;;;5114680;27;20469;-61
2021/07/18 12:31:06;;;;;;;4.67;2.10;;;28.00;90.20;;;;;;5114488;27;20489;-61
2021/07/18 12:33:35;;;;;;;2.77;2.20;;;27.90;90.10;;;;;;5114646;27;20555;-61
2021/07/18 12:36:03;;;;;;;2.10;2.00;;;28.00;89.70;;;;;;5114193;27;20540;-61
2021/07/18 12:38:30;;;;;;;3.13;2.20;;;28.10;90.00;;;;;;5114642;27;20473;-61
2021/07/18 12:41:02;;;;;;;2.90;2.33;;;28.20;90.00;;;;;;5114569;27;20976;-62
2021/07/18 12:43:29;;;;;;;2.03;1.73;;;28.20;90.30;;;;;;5114302;27;20480;-61
2021/07/18 12:45:57;;;;;;;2.13;1.93;;;28.20;88.70;;;;;;5114451;27;20464;-61
2021/07/18 12:48:25;;;;;;;2.93;2.70;;;28.20;88.50;;;;;;5113933;27;20813;-62
2021/07/18 12:50:53;;;;;;;5.17;2.80;;;28.20;88.80;;;;;;5114373;27;20460;-62
2021/07/18 12:53:21;;;;;;;2.50;2.30;;;28.30;89.10;;;;;;5113644;27;21015;-60
2021/07/18 12:55:50;;;;;;;2.87;2.23;;;28.20;89.30;;;;;;5114313;27;20469;-61